createdAt,value
2022-11-18T00:01:58.516Z,8.93
2022-11-18T00:04:32.195Z,8.93
2022-11-18T00:07:08.421Z,9.11
2022-11-18T00:09:37.664Z,9.06
2022-11-18T00:12:25.079Z,9.03
2022-11-18T00:14:54.372Z,9.06
2022-11-18T00:17:25.041Z,9.17
2022-11-18T00:19:58.948Z,9.26
2022-11-18T00:22:30.020Z,9.24
2022-11-18T00:24:59.587Z,9.27
2022-11-18T00:27:31.030Z,9.10
2022-11-18T00:30:02.046Z,9.19
2022-11-18T00:32:39.321Z,9.31
2022-11-18T00:35:13.772Z,9.24
2022-11-18T00:37:45.223Z,9.31
2022-11-18T00:40:16.808Z,9.26
2022-11-18T00:42:56.779Z,9.23
2022-11-18T00:45:33.722Z,9.15
2022-11-18T00:48:10.343Z,9.21
2022-11-18T00:50:41.717Z,9.25
2022-11-18T00:53:12.673Z,9.32
2022-11-18T00:55:45.463Z,9.28
2022-11-18T00:58:14.959Z,9.31
2022-11-18T01:00:49.258Z,9.26
2022-11-18T01:03:26.607Z,9.38
2022-11-18T01:05:58.138Z,9.32
2022-11-18T01:08:32.194Z,9.31
2022-11-18T01:11:19.140Z,9.26
2022-11-18T01:13:54.064Z,9.35
2022-11-18T01:16:27.947Z,9.38
2022-11-18T01:18:58.940Z,9.39
2022-11-18T01:21:27.389Z,9.33
2022-11-18T01:24:00.325Z,9.24
2022-11-18T01:26:32.298Z,9.38
2022-11-18T01:29:02.723Z,9.34
2022-11-18T01:31:33.453Z,9.38
2022-11-18T01:34:05.291Z,9.40
2022-11-18T01:36:39.227Z,9.38
2022-11-18T01:39:07.811Z,9.33
2022-11-18T01:41:42.416Z,9.34
2022-11-18T01:47:37.060Z,9.47
2022-11-18T01:50:12.593Z,9.30
2022-11-18T01:52:51.324Z,9.37
2022-11-18T01:55:31.798Z,9.22
2022-11-18T01:58:14.020Z,9.03
2022-11-18T02:00:43.031Z,9.18
2022-11-18T02:03:21.145Z,9.16
2022-11-18T02:06:08.264Z,9.18
2022-11-18T02:08:54.381Z,9.06
2022-11-18T02:11:45.177Z,9.11
2022-11-18T02:14:19.558Z,9.12
2022-11-18T02:17:21.746Z,9.12
2022-11-18T02:19:58.069Z,9.05
2022-11-18T02:23:06.095Z,9.10
2022-11-18T02:29:18.845Z,8.96
2022-11-18T02:32:07.177Z,9.00
2022-11-18T02:35:00.180Z,9.00
2022-11-18T02:37:57.133Z,9.12
2022-11-18T02:40:33.006Z,9.17
2022-11-18T02:43:23.355Z,8.92
2022-11-18T02:45:58.671Z,9.01
2022-11-18T02:48:33.402Z,9.09
2022-11-18T02:51:19.386Z,9.09
2022-11-18T02:53:49.938Z,9.18
2022-11-18T02:56:21.485Z,9.19
2022-11-18T02:59:05.830Z,9.21
2022-11-18T03:01:42.167Z,9.23
2022-11-18T03:04:12.518Z,9.17
2022-11-18T03:07:21.487Z,9.22
2022-11-18T03:09:59.082Z,9.17
2022-11-18T03:13:01.249Z,9.06
2022-11-18T03:15:49.154Z,9.23
2022-11-18T03:18:57.272Z,9.17
2022-11-18T03:21:38.902Z,9.01
2022-11-18T03:24:36.090Z,9.02
2022-11-18T03:27:34.009Z,9.07
2022-11-18T03:30:11.675Z,9.15
2022-11-18T03:33:04.393Z,9.13
2022-11-18T03:35:43.441Z,9.10
2022-11-18T03:38:17.736Z,9.18
2022-11-18T03:40:54.738Z,9.01
2022-11-18T03:43:34.305Z,9.00
2022-11-18T03:46:12.783Z,9.16
2022-11-18T03:49:01.702Z,9.13
2022-11-18T03:51:50.250Z,9.09
2022-11-18T03:54:43.744Z,9.09
2022-11-18T03:57:36.904Z,8.98
2022-11-18T04:00:17.803Z,8.91
2022-11-18T04:02:53.679Z,9.00
2022-11-18T04:05:32.040Z,9.07
2022-11-18T04:08:03.620Z,8.52
2022-11-18T04:10:49.838Z,9.03
2022-11-18T04:13:49.799Z,9.03
2022-11-18T04:19:06.311Z,9.07
2022-11-18T04:21:37.196Z,9.00
2022-11-18T04:24:06.240Z,9.00
2022-11-18T04:26:35.614Z,8.86
2022-11-18T04:29:03.565Z,8.88
2022-11-18T04:31:37.068Z,8.88
2022-11-18T04:34:10.607Z,8.91
2022-11-18T04:36:41.313Z,8.95
2022-11-18T04:39:15.377Z,8.99
2022-11-18T04:42:03.560Z,9.03
2022-11-18T04:44:44.147Z,9.01
2022-11-18T04:47:13.231Z,9.01
2022-11-18T04:52:25.939Z,9.04
2022-11-18T04:55:06.220Z,9.00
2022-11-18T04:57:36.888Z,9.04
2022-11-18T05:00:13.757Z,9.03
2022-11-18T05:02:56.675Z,9.03
2022-11-18T05:05:26.956Z,9.00
2022-11-18T05:07:57.965Z,9.01
2022-11-18T05:10:29.065Z,9.02
2022-11-18T05:12:59.382Z,8.86
2022-11-18T05:15:30.079Z,9.03
2022-11-18T05:18:01.668Z,8.95
2022-11-18T05:23:16.027Z,9.05
2022-11-18T05:25:47.404Z,9.08
2022-11-18T05:28:18.850Z,8.99
2022-11-18T05:30:48.054Z,8.98
2022-11-18T05:33:17.081Z,8.88
2022-11-18T05:35:52.470Z,8.97
2022-11-18T05:38:28.379Z,9.00
2022-11-18T05:41:33.513Z,8.96
2022-11-18T05:44:03.950Z,8.96
2022-11-18T05:49:20.398Z,8.91
2022-11-18T05:51:50.093Z,9.04
2022-11-18T05:54:20.617Z,9.10
2022-11-18T05:56:56.312Z,9.04
2022-11-18T05:59:27.077Z,9.12
2022-11-18T06:02:17.692Z,8.97
2022-11-18T06:05:03.135Z,9.06
2022-11-18T06:07:38.681Z,9.09
2022-11-18T06:10:11.044Z,9.13
2022-11-18T06:12:56.735Z,9.06
2022-11-18T06:15:30.132Z,9.10
2022-11-18T06:18:11.750Z,9.21
2022-11-18T06:20:43.096Z,9.22
2022-11-18T06:23:37.501Z,9.21
2022-11-18T06:26:10.345Z,9.10
2022-11-18T06:28:55.358Z,9.14
2022-11-18T06:31:23.491Z,9.15
2022-11-18T06:33:54.483Z,9.21
2022-11-18T06:36:30.850Z,9.09
2022-11-18T06:39:07.755Z,9.10
2022-11-18T06:41:40.873Z,9.17
2022-11-18T06:44:11.466Z,9.17
2022-11-18T06:46:57.544Z,9.23
2022-11-18T06:49:28.898Z,9.17
2022-11-18T06:52:00.951Z,9.19
2022-11-18T06:54:37.717Z,9.35
2022-11-18T06:57:08.051Z,9.40
2022-11-18T06:59:44.836Z,9.52
2022-11-18T07:02:15.114Z,9.47
2022-11-18T07:04:53.524Z,9.48
2022-11-18T07:07:26.428Z,9.35
2022-11-18T07:09:59.355Z,9.40
2022-11-18T07:12:29.733Z,9.20
2022-11-18T07:15:08.611Z,9.30
2022-11-18T07:17:36.646Z,9.27
2022-11-18T07:20:12.292Z,9.17
2022-11-18T07:22:46.166Z,9.39
2022-11-18T07:25:15.468Z,9.47
2022-11-18T07:27:46.407Z,9.52
2022-11-18T07:30:15.605Z,9.52
2022-11-18T07:32:46.350Z,9.52
2022-11-18T07:35:28.993Z,9.60
2022-11-18T07:38:02.466Z,9.62
2022-11-18T07:40:34.813Z,9.66
2022-11-18T07:45:48.225Z,9.72
2022-11-18T07:48:16.661Z,9.87
2022-11-18T07:50:47.501Z,9.93
2022-11-18T07:53:25.103Z,9.77
2022-11-18T07:55:59.368Z,9.93
2022-11-18T07:58:28.722Z,10.08
2022-11-18T08:00:59.594Z,10.12
2022-11-18T08:03:31.291Z,10.13
2022-11-18T08:06:09.530Z,10.14
2022-11-18T08:08:41.356Z,10.17
2022-11-18T08:11:15.176Z,10.01
2022-11-18T08:13:49.335Z,10.00
2022-11-18T08:16:27.693Z,9.93
2022-11-18T08:18:58.269Z,9.90
2022-11-18T08:21:36.045Z,9.97
2022-11-18T08:24:10.429Z,9.98
2022-11-18T08:26:41.458Z,9.91
2022-11-18T08:29:13.362Z,10.01
2022-11-18T08:31:41.500Z,10.01
2022-11-18T08:34:20.396Z,9.95
2022-11-18T08:36:50.717Z,9.89
2022-11-18T08:39:19.782Z,9.88
2022-11-18T08:41:51.092Z,9.95
2022-11-18T08:44:20.202Z,9.93
2022-11-18T08:46:57.919Z,9.93
2022-11-18T08:49:32.347Z,9.93
2022-11-18T08:52:04.755Z,9.84
2022-11-18T08:54:36.296Z,9.83
2022-11-18T08:57:12.625Z,9.81
2022-11-18T08:59:45.346Z,10.02
2022-11-18T09:02:21.961Z,9.98
2022-11-18T09:05:01.826Z,9.99
2022-11-18T09:07:33.048Z,10.11
2022-11-18T09:10:11.812Z,10.19
2022-11-18T09:12:43.384Z,10.08
2022-11-18T09:15:19.340Z,9.92
2022-11-18T09:17:49.498Z,10.10
2022-11-18T09:20:19.228Z,10.18
2022-11-18T09:25:39.258Z,10.29
2022-11-18T09:30:53.341Z,10.22
2022-11-18T09:33:24.433Z,10.29
2022-11-18T09:35:58.293Z,10.37
2022-11-18T09:41:39.250Z,10.23
2022-11-18T09:44:31.457Z,10.26
2022-11-18T09:47:40.343Z,10.29
2022-11-18T09:50:48.625Z,10.30
2022-11-18T09:53:35.656Z,10.24
2022-11-18T09:56:12.912Z,10.22
2022-11-18T09:58:49.838Z,10.19
2022-11-18T10:01:27.318Z,10.20
2022-11-18T10:03:58.937Z,10.26
2022-11-18T10:06:30.498Z,10.27
2022-11-18T10:09:39.797Z,10.31
2022-11-18T10:12:37.699Z,9.85
2022-11-18T10:15:33.203Z,10.27
2022-11-18T10:18:58.494Z,10.32
2022-11-18T10:21:38.743Z,10.14
2022-11-18T10:24:17.238Z,10.09
2022-11-18T10:26:50.230Z,10.21
2022-11-18T10:29:29.329Z,10.11
2022-11-18T10:32:08.652Z,10.24
2022-11-18T10:34:55.534Z,10.20
2022-11-18T10:38:06.692Z,10.28
2022-11-18T10:40:42.582Z,10.33
2022-11-18T10:43:17.047Z,10.35
2022-11-18T10:48:50.870Z,10.33
2022-11-18T10:51:25.612Z,10.34
2022-11-18T10:54:10.703Z,10.37
2022-11-18T10:57:20.893Z,10.42
2022-11-18T10:59:52.746Z,10.48
2022-11-18T11:02:55.304Z,10.41
2022-11-18T11:05:26.813Z,10.50
2022-11-18T11:08:40.610Z,10.55
2022-11-18T11:11:34.005Z,10.50
2022-11-18T11:14:40.327Z,10.38
2022-11-18T11:17:24.062Z,10.25
2022-11-18T11:20:20.231Z,10.21
2022-11-18T11:22:48.813Z,10.27
2022-11-18T11:25:27.016Z,10.36
2022-11-18T11:28:20.734Z,10.41
2022-11-18T11:31:17.558Z,10.36
2022-11-18T11:34:06.238Z,10.47
2022-11-18T11:36:58.853Z,10.57
2022-11-18T11:39:52.863Z,10.42
2022-11-18T11:42:59.045Z,10.54
2022-11-18T11:46:11.467Z,10.63
2022-11-18T11:48:50.360Z,10.64
2022-11-18T11:52:00.447Z,10.64
2022-11-18T11:55:10.771Z,10.67
2022-11-18T11:58:03.841Z,10.73
2022-11-18T12:00:44.709Z,10.78
2022-11-18T12:03:37.266Z,10.78
2022-11-18T12:06:19.146Z,10.71
2022-11-18T12:09:11.195Z,10.56
2022-11-18T12:12:33.679Z,10.58
2022-11-18T12:15:09.881Z,10.55
2022-11-18T12:18:08.410Z,10.42
2022-11-18T12:20:52.511Z,10.37
2022-11-18T12:23:42.899Z,10.38
2022-11-18T12:26:16.833Z,10.40
2022-11-18T12:28:57.105Z,10.36
2022-11-18T12:31:38.196Z,10.29
2022-11-18T12:34:19.788Z,10.26
2022-11-18T12:36:56.608Z,10.20
2022-11-18T12:39:39.592Z,10.16
2022-11-18T12:43:07.708Z,10.15
2022-11-18T12:46:02.079Z,10.15
2022-11-18T12:48:50.751Z,10.11
2022-11-18T12:51:29.760Z,10.13
2022-11-18T12:54:01.714Z,9.97
2022-11-18T12:56:45.522Z,9.91
2022-11-18T13:02:18.595Z,10.00
2022-11-18T13:04:53.245Z,9.91
2022-11-18T13:07:42.552Z,9.94
2022-11-18T13:10:31.577Z,9.93
2022-11-18T13:13:09.732Z,9.95
2022-11-18T13:16:02.429Z,9.90
2022-11-18T13:18:33.325Z,9.90
2022-11-18T13:21:25.370Z,9.85
2022-11-18T13:24:04.984Z,9.93
2022-11-18T13:26:46.286Z,9.81
2022-11-18T13:29:32.669Z,9.95
2022-11-18T13:32:29.229Z,10.01
2022-11-18T13:35:22.054Z,9.85
2022-11-18T13:38:28.438Z,9.92
2022-11-18T13:41:13.671Z,8.78
2022-11-18T13:43:44.754Z,9.80
2022-11-18T13:46:21.615Z,9.92
2022-11-18T13:49:03.645Z,9.74
2022-11-18T13:51:34.275Z,9.88
2022-11-18T13:56:53.823Z,9.94
2022-11-18T13:59:36.593Z,10.01
2022-11-18T14:02:12.353Z,10.02
2022-11-18T14:05:10.787Z,10.02
2022-11-18T14:07:41.386Z,9.95
2022-11-18T14:10:22.047Z,9.94
2022-11-18T14:13:06.512Z,10.00
2022-11-18T14:15:44.035Z,9.90
2022-11-18T14:18:40.851Z,9.92
2022-11-18T14:21:15.393Z,9.89
2022-11-18T14:23:45.989Z,9.81
2022-11-18T14:26:30.723Z,9.90
2022-11-18T14:29:02.022Z,9.90
2022-11-18T14:31:39.861Z,9.82
2022-11-18T14:34:33.660Z,9.86
2022-11-18T14:37:01.331Z,9.91
2022-11-18T14:39:41.848Z,9.91
2022-11-18T14:42:14.255Z,9.88
2022-11-18T14:44:52.014Z,9.89
2022-11-18T14:47:33.167Z,9.91
2022-11-18T14:50:00.894Z,9.78
2022-11-18T14:52:29.073Z,9.71
2022-11-18T14:54:58.531Z,9.68
2022-11-18T14:57:30.166Z,9.74
2022-11-18T15:00:13.816Z,9.73
2022-11-18T15:02:45.623Z,9.76
2022-11-18T15:05:17.895Z,9.72
2022-11-18T15:07:46.870Z,9.69
2022-11-18T15:10:32.514Z,9.74
2022-11-18T15:13:12.391Z,9.49
2022-11-18T15:15:43.427Z,9.60
2022-11-18T15:18:14.005Z,9.58
2022-11-18T15:20:41.839Z,9.55
2022-11-18T15:23:09.557Z,9.65
2022-11-18T15:25:40.097Z,9.64
2022-11-18T15:28:10.451Z,9.59
2022-11-18T15:30:44.256Z,9.47
2022-11-18T15:33:15.593Z,9.27
2022-11-18T15:35:46.982Z,9.34
2022-11-18T15:38:16.241Z,9.31
2022-11-18T15:40:52.922Z,9.29
2022-11-18T15:43:21.893Z,9.27
2022-11-18T15:45:49.924Z,9.31
2022-11-18T15:48:26.281Z,9.24
2022-11-18T15:51:10.402Z,9.23
2022-11-18T15:53:43.993Z,9.28
2022-11-18T15:56:38.233Z,9.28
2022-11-18T15:59:15.226Z,9.30
2022-11-18T16:01:54.241Z,9.07
2022-11-18T16:04:29.311Z,9.11
2022-11-18T16:07:01.753Z,9.10
2022-11-18T16:09:49.709Z,8.98
2022-11-18T16:12:38.571Z,9.08
2022-11-18T16:15:26.729Z,9.15
2022-11-18T16:18:03.362Z,9.12
2022-11-18T16:20:42.353Z,9.10
2022-11-18T16:23:11.195Z,9.05
2022-11-18T16:25:58.970Z,9.05
2022-11-18T16:28:31.050Z,8.98
2022-11-18T16:31:21.974Z,9.02
2022-11-18T16:33:58.848Z,9.03
2022-11-18T16:36:37.930Z,9.00
2022-11-18T16:39:15.436Z,9.03
2022-11-18T16:41:45.865Z,8.89
2022-11-18T16:44:24.074Z,8.87
2022-11-18T16:47:03.781Z,8.74
2022-11-18T16:49:35.848Z,8.71
2022-11-18T16:52:03.572Z,8.57
2022-11-18T16:54:44.280Z,8.51
2022-11-18T16:57:19.245Z,8.26
2022-11-18T16:59:48.387Z,8.22
2022-11-18T17:02:22.917Z,8.26
2022-11-18T17:04:54.992Z,8.34
2022-11-18T17:07:25.341Z,8.34
2022-11-18T17:09:57.556Z,8.41
2022-11-18T17:12:29.772Z,8.29
2022-11-18T17:15:00.570Z,8.42
2022-11-18T17:17:30.548Z,8.37
2022-11-18T17:20:08.935Z,8.40
2022-11-18T17:22:46.769Z,8.43
2022-11-18T17:25:14.984Z,7.86
2022-11-18T17:27:44.205Z,8.07
2022-11-18T17:30:17.863Z,8.06
2022-11-18T17:32:50.873Z,8.13
2022-11-18T17:35:19.406Z,8.10
2022-11-18T17:37:49.345Z,8.14
2022-11-18T17:43:12.056Z,7.98
2022-11-18T17:45:47.221Z,8.06
2022-11-18T17:48:25.997Z,8.09
2022-11-18T17:51:06.890Z,7.76
2022-11-18T17:53:41.298Z,7.32
2022-11-18T17:56:13.002Z,7.08
2022-11-18T17:58:44.407Z,6.78
2022-11-18T18:01:34.011Z,7.23
2022-11-18T18:04:02.371Z,7.32
2022-11-18T18:06:31.963Z,7.38
2022-11-18T18:09:03.959Z,7.38
2022-11-18T18:11:34.140Z,7.14
2022-11-18T18:14:18.084Z,6.77
2022-11-18T18:16:56.643Z,6.80
2022-11-18T18:19:31.698Z,7.03
2022-11-18T18:22:08.026Z,7.11
2022-11-18T18:24:38.566Z,7.07
2022-11-18T18:29:53.241Z,6.86
2022-11-18T18:39:01.706Z,6.90
2022-11-18T18:41:41.899Z,7.06
2022-11-18T18:44:15.174Z,7.06
2022-11-18T18:46:48.512Z,7.10
2022-11-18T18:52:04.135Z,7.04
2022-11-18T18:54:40.749Z,6.69
2022-11-18T18:57:11.332Z,6.89
2022-11-18T18:59:44.742Z,6.78
2022-11-18T19:02:22.089Z,6.64
2022-11-18T19:04:54.033Z,6.58
2022-11-18T19:07:22.666Z,6.46
2022-11-18T19:09:57.414Z,6.11
2022-11-18T19:12:52.417Z,5.84
2022-11-18T19:15:31.602Z,5.57
2022-11-18T19:18:06.648Z,6.01
2022-11-18T19:20:47.669Z,5.99
2022-11-18T19:23:18.303Z,6.01
2022-11-18T19:25:52.379Z,6.03
2022-11-18T19:28:20.037Z,5.76
2022-11-18T19:30:53.661Z,5.46
2022-11-18T19:33:25.997Z,5.72
2022-11-18T19:35:59.295Z,5.82
2022-11-18T19:38:29.284Z,5.52
2022-11-18T19:41:07.400Z,5.88
2022-11-18T19:43:36.248Z,5.87
2022-11-18T19:46:10.993Z,5.82
2022-11-18T19:48:39.611Z,5.26
2022-11-18T19:51:16.157Z,5.26
2022-11-18T19:53:50.023Z,5.11
2022-11-18T19:56:22.203Z,5.46
2022-11-18T19:58:57.349Z,5.71
2022-11-18T20:01:45.292Z,5.75
2022-11-18T20:04:30.757Z,5.43
2022-11-18T20:07:04.590Z,5.37
2022-11-18T20:09:35.369Z,5.39
2022-11-18T20:12:09.031Z,5.68
2022-11-18T20:14:42.933Z,5.82
2022-11-18T20:17:12.412Z,5.89
2022-11-18T20:19:49.664Z,6.06
2022-11-18T20:22:22.803Z,5.95
2022-11-18T20:24:58.723Z,5.82
2022-11-18T20:27:29.086Z,5.66
2022-11-18T20:30:04.895Z,5.73
2022-11-18T20:32:43.087Z,5.91
2022-11-18T20:35:11.333Z,5.96
2022-11-18T20:37:46.215Z,6.18
2022-11-18T20:40:22.441Z,6.15
2022-11-18T20:43:07.669Z,6.20
2022-11-18T20:45:39.173Z,6.17
2022-11-18T20:48:13.071Z,6.27
2022-11-18T20:50:50.737Z,6.48
2022-11-18T20:53:22.429Z,6.61
2022-11-18T20:55:57.143Z,6.48
2022-11-18T20:58:33.685Z,6.33
2022-11-18T21:01:24.730Z,6.38
2022-11-18T21:04:07.923Z,6.50
2022-11-18T21:06:39.076Z,6.64
2022-11-18T21:09:10.484Z,6.75
2022-11-18T21:11:42.294Z,6.76
2022-11-18T21:14:25.072Z,6.76
2022-11-18T21:17:03.317Z,6.75
2022-11-18T21:19:43.460Z,6.79
2022-11-18T21:22:16.816Z,6.55
2022-11-18T21:24:52.705Z,6.59
2022-11-18T21:27:24.573Z,6.66
2022-11-18T21:29:55.217Z,6.67
2022-11-18T21:32:28.248Z,6.62
2022-11-18T21:35:05.085Z,6.73
2022-11-18T21:37:37.279Z,6.68
2022-11-18T21:43:02.745Z,6.48
2022-11-18T21:45:37.012Z,6.68
2022-11-18T21:48:08.858Z,6.81
2022-11-18T21:50:37.770Z,6.92
2022-11-18T21:53:09.477Z,6.99
2022-11-18T21:55:43.047Z,7.01
2022-11-18T21:58:20.903Z,6.90
2022-11-18T22:00:51.945Z,6.99
2022-11-18T22:03:29.799Z,6.94
2022-11-18T22:06:06.917Z,7.03
2022-11-18T22:08:48.235Z,7.04
2022-11-18T22:11:17.061Z,6.98
2022-11-18T22:13:51.262Z,6.95
2022-11-18T22:16:25.943Z,7.04
2022-11-18T22:19:06.709Z,7.17
2022-11-18T22:21:38.723Z,7.17
2022-11-18T22:24:12.019Z,7.22
2022-11-18T22:26:42.693Z,7.20
2022-11-18T22:29:15.129Z,7.16
2022-11-18T22:31:45.531Z,7.22
2022-11-18T22:34:19.241Z,7.20
2022-11-18T22:36:47.126Z,7.23
2022-11-18T22:39:16.785Z,7.23
2022-11-18T22:42:07.877Z,7.27
2022-11-18T22:44:38.406Z,7.26
2022-11-18T22:47:21.209Z,7.26
2022-11-18T22:49:58.845Z,7.17
2022-11-18T22:52:29.959Z,7.13
2022-11-18T22:55:09.297Z,7.11
2022-11-18T22:57:41.070Z,7.20
2022-11-18T23:00:13.645Z,7.22
2022-11-18T23:02:50.732Z,7.25
2022-11-18T23:05:24.719Z,7.18
2022-11-18T23:07:55.537Z,7.18
2022-11-18T23:10:25.801Z,7.27
2022-11-18T23:13:12.728Z,7.27
2022-11-18T23:15:43.992Z,7.22
2022-11-18T23:21:12.422Z,7.24
2022-11-18T23:23:40.949Z,7.25
2022-11-18T23:26:21.676Z,7.18
2022-11-18T23:28:53.040Z,7.28
2022-11-18T23:31:47.140Z,7.21
2022-11-18T23:34:18.528Z,7.28
2022-11-18T23:36:49.999Z,7.33
2022-11-18T23:39:29.834Z,7.28
2022-11-18T23:41:57.770Z,6.98
2022-11-18T23:44:44.045Z,7.37
2022-11-18T23:47:22.020Z,7.25
2022-11-18T23:52:51.281Z,7.26
2022-11-18T23:55:28.111Z,7.40
2022-11-18T23:58:04.688Z,7.30
